• Join FlightAware (Why Join?)
  • Login
  • US Flag 
Rudolph Flight #1: Arrived! 
01:31AM EST


 

Airport Tracker/Info


-or-


 

Live Flight TrackerFlight Track Log ✈ UAL582 ✈ 16-May-2013 ✈ CYYZ - KORD

Flight Track Log - Related Links

Times and Time Zones

All times are in EDT time to prevent confusion due to time zone crossing. See the UAL582 flight status page for this flight to view local times or setup timezone preferences in your user account.

Time Position Orientation Groundspeed Altitude Reporting Facility
EDT Latitude Longitude Course Direction KTS MPH feet Rate Location/Type
06:08PM 43.7000 -79.5833 253° West 160 184 2,200  Level Toronto Center
06:09PM 43.7500 -79.5333 36° Northeast 230 265 3,900 2,100 Climbing Toronto Center
06:10PM 43.8000 -79.5667 334° Northwest 240 276 6,500 1,560 Climbing Toronto Center
06:11PM 43.8000 -79.6500 270° West 250 288 7,100 240 Climbing Toronto Center
06:12PM 43.7833 -79.7500 257° West 250 288 7,000 300 Descending Toronto Center
06:13PM 43.7833 -79.8667 270° West 250 288 7,800 1,800 Climbing Toronto Center
06:14PM 43.7242 -80.5925 253° West  Level FlightAware Approximate
06:14PM 43.7833 -79.9500 270° West 260 299 10,600  Level Toronto Center
06:15PM 43.7667 -80.0667 259° West 300 345 11,500 1,200 Climbing Toronto Center
06:16PM 43.7667 -80.2167 270° West 360 414 13,100 1,860 Climbing Toronto Center
06:17PM 43.7500 -80.3667 261° West 380 437 15,300 2,100 Climbing Toronto Center
06:18PM 43.7333 -80.5167 261° West 400 460 17,400 2,100 Climbing Toronto Center
06:19PM 43.7167 -80.6667 261° West 400 460 19,500 1,620 Climbing Toronto Center
06:20PM 43.6833 -80.8167 253° West 400 460 20,700 1,500 Climbing Toronto Center
06:21PM 43.6333 -80.9667 245° Southwest 410 472 22,600 1,260 Climbing Toronto Center
06:22PM 43.6000 -81.1000 251° West 420 483 23,300 840 Climbing Toronto Center
06:23PM 43.5667 -81.2833 256° West 430 495 24,300 960 Climbing Toronto Center
06:24PM 43.5333 -81.4333 253° West 440 506 25,300 1,200 Climbing Toronto Center
06:25PM 43.5000 -81.6167 256° West 440 506 26,700 1,260 Climbing Toronto Center
06:26PM 43.5000 -81.7500 270° West 420 483 27,900 1,500 Climbing Toronto Center
06:27PM 43.4667 -81.9333 256° West 410 472 29,800 1,800 Climbing Toronto Center
06:28PM 43.5000 -82.0667 289° West 390 449 31,600 1,200 Climbing Toronto Center
06:29PM 43.4833 -82.2333 262° West 400 460 32,300 540 Climbing Toronto Center
06:29PM 43.4839 -82.2511 272° West 402 463 32,300 840 Level Cleveland Center
06:30PM 43.4442 -82.3986 250° West 407 468 33,400 840 Climbing Cleveland Center
06:31PM 43.4147 -82.5494 255° West 412 474 34,000 300 Climbing Cleveland Center
06:32PM 43.3667 -82.6667 241° Southwest 410 472 34,000  Level Toronto Center
06:32PM 43.3869 -82.6969 313° West 412 474 34,000  Level Cleveland Center
06:33PM 43.3500 -82.8167 247° West 410 472 34,000  Level Toronto Center
06:33PM 43.3572 -82.8444 290° West 412 474 34,000 -240 Level Cleveland Center
06:34PM 43.3247 -82.9975 254° West 412 474 33,700 -540 Descending Cleveland Center
06:35PM 43.2922 -83.1503 254° West 412 474 33,000 -360 Descending Cleveland Center
06:36PM 43.2619 -83.2972 254° West 412 474 33,000  Level Cleveland Center
06:37PM 43.2311 -83.4497 255° West 412 474 33,000  Level Cleveland Center
06:38PM 43.2000 -83.6050 255° West 412 474 33,000 -60 Level Cleveland Center
06:39PM 43.1689 -83.7600 255° West 412 474 32,900 -300 Descending Cleveland Center
06:40PM 43.1356 -83.9092 253° West 412 474 32,400 -480 Descending Cleveland Center
06:41PM 43.1019 -84.0581 253° West 412 474 32,000 -240 Descending Cleveland Center
06:42PM 43.0681 -84.2125 253° West 412 474 32,000  Level Cleveland Center
06:43PM 43.0356 -84.3756 255° West 412 474 32,000 -120 Level Cleveland Center
06:44PM 43.0181 -84.4583 254° West 420 483 31,900 -420 Descending Chicago Center
06:45PM 42.9850 -84.6114 254° West 421 484 31,400 -660 Descending Chicago Center
06:46PM 42.9506 -84.7653 253° West 423 487 30,600 -720 Descending Chicago Center
06:47PM 42.9167 -84.9219 254° West 429 494 30,000 -300 Descending Chicago Center
06:48PM 42.8814 -85.0806 253° West 435 501 30,000 -540 Level Chicago Center
06:49PM 42.8386 -85.2667 253° West 431 496 29,000 -1,140 Descending Chicago Center
06:50PM 42.8053 -85.4114 253° West 410 472 27,700 -1,260 Descending Chicago Center
06:51PM 42.7753 -85.5531 254° West 395 455 26,400 -1,260 Descending Chicago Center
06:52PM 42.7831 -85.6958 274° West 392 451 25,200 -1,260 Descending Chicago Center
06:53PM 42.8053 -85.8364 282° West 379 436 23,900 -1,260 Descending Chicago Center
06:54PM 42.7622 -85.9689 246° West 383 441 22,600 -1,260 Descending Chicago Center
06:55PM 42.7128 -86.0992 243° Southwest 386 444 21,400 -1,260 Descending Chicago Center
06:56PM 42.6536 -86.2511 242° Southwest 379 436 20,000 -720 Descending Chicago Center
06:57PM 42.6233 -86.3839 253° West 367 422 19,900 -660 Descending Chicago Center
06:59PM 42.5983 -86.5161 256° West 362 417 18,700 -1,560 Descending Chicago Center
07:00PM 42.5742 -86.6486 256° West 361 415 16,700 -2,040 Descending Chicago Center
07:01PM 42.5483 -86.7778 255° West 357 411 14,600 -2,040 Descending Chicago Center
07:02PM 42.5142 -86.8978 249° West 346 398 12,600 -2,100 Descending Chicago Center
07:03PM 42.4764 -87.0386 250° West 333 383 10,300 -1,260 Descending Chicago Center
07:04PM 42.4419 -87.1539 248° West 333 383 10,000 -300 Descending Chicago Center
07:05PM 42.4119 -87.2658 250° West 321 369 9,700 -780 Descending Chicago Center
07:06PM 42.3750 -87.3575 241° Southwest 287 330 8,500 -1,260 Descending Chicago Center
07:07PM 42.3308 -87.4592 240° Southwest 285 328 7,100 -720 Descending Chicago Center
07:08PM 42.2956 -87.5439 241° Southwest 284 327 7,100 -120 Level Chicago Center
07:09PM 42.2431 -87.6286 230° Southwest 246 283 6,900 -720 Descending Chicago Center
07:10PM 42.1908 -87.6803 216° Southwest 235 270 5,700 -1,200 Descending Chicago Center
07:11PM 42.1419 -87.7378 221° Southwest 235 270 4,500 -1,140 Descending Chicago Center
07:12PM 42.1000 -87.7667 207° Southwest 228 262 3,900 -900 Descending Chicago TRACON
07:13PM 42.0667 -87.8167 228° Southwest 175 201 3,000 -1,140 Descending Chicago TRACON
07:14PM 42.0333 -87.8667 228° Southwest 171 197 1,700 -900 Descending Chicago TRACON
07:15PM 41.9781 -87.9150 213° Southwest 175 201 900 -540 Descending Chicago Center